sensor_id;sensor_type;location;lat;lon;timestamp;P1;durP1;ratioP1;P2;durP2;ratioP2
79047;SDS011;68680;50.764;6.120;2024-03-08T00:02:21;48.90;;;25.35;;
79047;SDS011;68680;50.764;6.120;2024-03-08T00:04:47;45.88;;;25.20;;
79047;SDS011;68680;50.764;6.120;2024-03-08T00:07:14;52.85;;;27.35;;
79047;SDS011;68680;50.764;6.120;2024-03-08T00:09:40;47.35;;;25.23;;
79047;SDS011;68680;50.764;6.120;2024-03-08T00:12:06;53.13;;;27.50;;
79047;SDS011;68680;50.764;6.120;2024-03-08T00:14:32;51.08;;;25.52;;
79047;SDS011;68680;50.764;6.120;2024-03-08T00:16:58;50.90;;;26.95;;
79047;SDS011;68680;50.764;6.120;2024-03-08T00:19:24;50.53;;;25.60;;
79047;SDS011;68680;50.764;6.120;2024-03-08T00:21:49;51.55;;;27.92;;
79047;SDS011;68680;50.764;6.120;2024-03-08T00:24:16;56.05;;;27.25;;
79047;SDS011;68680;50.764;6.120;2024-03-08T00:26:42;46.55;;;25.38;;
79047;SDS011;68680;50.764;6.120;2024-03-08T00:29:08;55.30;;;28.83;;
79047;SDS011;68680;50.764;6.120;2024-03-08T00:31:34;52.08;;;27.42;;
79047;SDS011;68680;50.764;6.120;2024-03-08T00:33:59;52.03;;;27.48;;
79047;SDS011;68680;50.764;6.120;2024-03-08T00:36:25;54.15;;;27.70;;
79047;SDS011;68680;50.764;6.120;2024-03-08T00:38:51;52.17;;;26.25;;
79047;SDS011;68680;50.764;6.120;2024-03-08T00:41:18;54.67;;;27.98;;
79047;SDS011;68680;50.764;6.120;2024-03-08T00:43:44;57.45;;;28.45;;
79047;SDS011;68680;50.764;6.120;2024-03-08T00:46:09;57.35;;;28.02;;
79047;SDS011;68680;50.764;6.120;2024-03-08T00:48:35;56.08;;;28.98;;
79047;SDS011;68680;50.764;6.120;2024-03-08T00:51:01;62.45;;;28.48;;
79047;SDS011;68680;50.764;6.120;2024-03-08T00:53:27;57.53;;;29.00;;
79047;SDS011;68680;50.764;6.120;2024-03-08T00:55:53;58.05;;;29.40;;
79047;SDS011;68680;50.764;6.120;2024-03-08T00:58:20;51.40;;;27.55;;
79047;SDS011;68680;50.764;6.120;2024-03-08T01:00:45;56.78;;;28.77;;
79047;SDS011;68680;50.764;6.120;2024-03-08T01:03:11;54.60;;;26.48;;
79047;SDS011;68680;50.764;6.120;2024-03-08T01:05:37;54.45;;;28.33;;
79047;SDS011;68680;50.764;6.120;2024-03-08T01:08:03;53.95;;;27.45;;
79047;SDS011;68680;50.764;6.120;2024-03-08T01:10:29;56.72;;;29.45;;
79047;SDS011;68680;50.764;6.120;2024-03-08T01:12:55;57.85;;;29.20;;
79047;SDS011;68680;50.764;6.120;2024-03-08T01:15:22;58.63;;;28.73;;
79047;SDS011;68680;50.764;6.120;2024-03-08T01:17:48;51.75;;;27.20;;
79047;SDS011;68680;50.764;6.120;2024-03-08T01:20:14;59.53;;;29.30;;
79047;SDS011;68680;50.764;6.120;2024-03-08T01:22:40;53.70;;;29.60;;
79047;SDS011;68680;50.764;6.120;2024-03-08T01:25:06;56.88;;;27.65;;
79047;SDS011;68680;50.764;6.120;2024-03-08T01:27:32;57.80;;;29.30;;
79047;SDS011;68680;50.764;6.120;2024-03-08T01:29:58;56.28;;;28.42;;
79047;SDS011;68680;50.764;6.120;2024-03-08T01:32:25;52.90;;;28.10;;
79047;SDS011;68680;50.764;6.120;2024-03-08T01:34:51;56.70;;;27.77;;
79047;SDS011;68680;50.764;6.120;2024-03-08T01:37:17;54.00;;;28.85;;
79047;SDS011;68680;50.764;6.120;2024-03-08T01:39:43;54.75;;;27.90;;
79047;SDS011;68680;50.764;6.120;2024-03-08T01:42:08;58.92;;;30.13;;
79047;SDS011;68680;50.764;6.120;2024-03-08T01:44:34;54.45;;;27.23;;
79047;SDS011;68680;50.764;6.120;2024-03-08T01:47:00;52.95;;;27.45;;
79047;SDS011;68680;50.764;6.120;2024-03-08T01:49:27;55.50;;;28.00;;
79047;SDS011;68680;50.764;6.120;2024-03-08T01:51:54;53.83;;;27.27;;
79047;SDS011;68680;50.764;6.120;2024-03-08T01:54:20;56.00;;;28.58;;
79047;SDS011;68680;50.764;6.120;2024-03-08T01:56:47;53.80;;;28.70;;
79047;SDS011;68680;50.764;6.120;2024-03-08T01:59:13;54.58;;;28.15;;
79047;SDS011;68680;50.764;6.120;2024-03-08T02:01:40;58.55;;;29.17;;
79047;SDS011;68680;50.764;6.120;2024-03-08T02:04:07;53.95;;;28.13;;
79047;SDS011;68680;50.764;6.120;2024-03-08T02:06:34;63.28;;;29.95;;
79047;SDS011;68680;50.764;6.120;2024-03-08T02:09:00;55.92;;;26.15;;
79047;SDS011;68680;50.764;6.120;2024-03-08T02:11:26;54.92;;;29.08;;
79047;SDS011;68680;50.764;6.120;2024-03-08T02:13:52;55.47;;;28.95;;
79047;SDS011;68680;50.764;6.120;2024-03-08T02:16:20;58.70;;;29.15;;
79047;SDS011;68680;50.764;6.120;2024-03-08T02:18:46;58.13;;;29.08;;
79047;SDS011;68680;50.764;6.120;2024-03-08T02:21:13;59.92;;;28.67;;
79047;SDS011;68680;50.764;6.120;2024-03-08T02:23:42;59.88;;;29.25;;
79047;SDS011;68680;50.764;6.120;2024-03-08T02:26:08;62.92;;;29.50;;
79047;SDS011;68680;50.764;6.120;2024-03-08T02:28:34;55.08;;;28.42;;
79047;SDS011;68680;50.764;6.120;2024-03-08T02:31:00;64.03;;;29.98;;
79047;SDS011;68680;50.764;6.120;2024-03-08T02:33:26;60.55;;;29.00;;
79047;SDS011;68680;50.764;6.120;2024-03-08T02:35:53;60.90;;;28.67;;
79047;SDS011;68680;50.764;6.120;2024-03-08T02:38:21;62.00;;;29.10;;
79047;SDS011;68680;50.764;6.120;2024-03-08T02:40:49;61.47;;;30.08;;
79047;SDS011;68680;50.764;6.120;2024-03-08T02:43:16;58.15;;;29.80;;
79047;SDS011;68680;50.764;6.120;2024-03-08T02:45:44;58.50;;;29.67;;
79047;SDS011;68680;50.764;6.120;2024-03-08T02:48:10;62.13;;;29.90;;
79047;SDS011;68680;50.764;6.120;2024-03-08T02:50:37;58.75;;;29.30;;
79047;SDS011;68680;50.764;6.120;2024-03-08T02:53:03;59.33;;;29.30;;
79047;SDS011;68680;50.764;6.120;2024-03-08T02:55:31;58.47;;;28.30;;
79047;SDS011;68680;50.764;6.120;2024-03-08T02:57:57;60.88;;;28.48;;
79047;SDS011;68680;50.764;6.120;2024-03-08T03:00:23;61.30;;;29.98;;
79047;SDS011;68680;50.764;6.120;2024-03-08T03:02:49;61.00;;;28.50;;
79047;SDS011;68680;50.764;6.120;2024-03-08T03:05:15;62.38;;;30.15;;
79047;SDS011;68680;50.764;6.120;2024-03-08T03:07:40;61.80;;;29.50;;
79047;SDS011;68680;50.764;6.120;2024-03-08T03:10:07;66.78;;;31.27;;
79047;SDS011;68680;50.764;6.120;2024-03-08T03:12:34;61.92;;;29.55;;
79047;SDS011;68680;50.764;6.120;2024-03-08T03:15:00;65.25;;;29.25;;
79047;SDS011;68680;50.764;6.120;2024-03-08T03:17:26;65.43;;;30.35;;
79047;SDS011;68680;50.764;6.120;2024-03-08T03:19:52;63.47;;;29.35;;
79047;SDS011;68680;50.764;6.120;2024-03-08T03:22:18;62.58;;;29.58;;
79047;SDS011;68680;50.764;6.120;2024-03-08T03:24:44;63.30;;;30.35;;
79047;SDS011;68680;50.764;6.120;2024-03-08T03:27:10;63.40;;;29.85;;
79047;SDS011;68680;50.764;6.120;2024-03-08T03:29:37;67.03;;;29.83;;
79047;SDS011;68680;50.764;6.120;2024-03-08T03:32:03;67.25;;;31.70;;
79047;SDS011;68680;50.764;6.120;2024-03-08T03:34:29;64.20;;;30.08;;
79047;SDS011;68680;50.764;6.120;2024-03-08T03:36:55;65.32;;;29.52;;
79047;SDS011;68680;50.764;6.120;2024-03-08T03:39:21;68.20;;;30.05;;
79047;SDS011;68680;50.764;6.120;2024-03-08T03:41:46;71.25;;;32.35;;
79047;SDS011;68680;50.764;6.120;2024-03-08T03:44:12;67.85;;;31.95;;
79047;SDS011;68680;50.764;6.120;2024-03-08T03:46:42;64.88;;;30.15;;
79047;SDS011;68680;50.764;6.120;2024-03-08T03:49:08;65.53;;;31.90;;
79047;SDS011;68680;50.764;6.120;2024-03-08T03:51:34;67.78;;;31.15;;
79047;SDS011;68680;50.764;6.120;2024-03-08T03:54:00;68.18;;;30.13;;
79047;SDS011;68680;50.764;6.120;2024-03-08T03:56:26;63.40;;;29.80;;
79047;SDS011;68680;50.764;6.120;2024-03-08T03:58:51;63.78;;;29.75;;
79047;SDS011;68680;50.764;6.120;2024-03-08T04:01:17;70.00;;;30.58;;
79047;SDS011;68680;50.764;6.120;2024-03-08T04:03:45;67.03;;;30.15;;
79047;SDS011;68680;50.764;6.120;2024-03-08T04:06:11;62.88;;;30.85;;
79047;SDS011;68680;50.764;6.120;2024-03-08T04:08:37;64.78;;;31.45;;
79047;SDS011;68680;50.764;6.120;2024-03-08T04:11:03;65.22;;;31.00;;
79047;SDS011;68680;50.764;6.120;2024-03-08T04:13:28;69.25;;;30.63;;
79047;SDS011;68680;50.764;6.120;2024-03-08T04:15:54;64.95;;;31.17;;
79047;SDS011;68680;50.764;6.120;2024-03-08T04:18:20;68.70;;;30.70;;
79047;SDS011;68680;50.764;6.120;2024-03-08T04:20:47;66.75;;;31.00;;
79047;SDS011;68680;50.764;6.120;2024-03-08T04:23:13;69.43;;;31.63;;
79047;SDS011;68680;50.764;6.120;2024-03-08T04:25:39;69.65;;;31.73;;
79047;SDS011;68680;50.764;6.120;2024-03-08T04:28:04;69.95;;;30.23;;
79047;SDS011;68680;50.764;6.120;2024-03-08T04:30:30;64.90;;;30.52;;
79047;SDS011;68680;50.764;6.120;2024-03-08T04:32:56;69.70;;;31.27;;
79047;SDS011;68680;50.764;6.120;2024-03-08T04:35:22;65.03;;;30.50;;
79047;SDS011;68680;50.764;6.120;2024-03-08T04:37:49;68.97;;;31.15;;
79047;SDS011;68680;50.764;6.120;2024-03-08T04:40:15;68.32;;;31.50;;
79047;SDS011;68680;50.764;6.120;2024-03-08T04:42:41;60.85;;;28.98;;
79047;SDS011;68680;50.764;6.120;2024-03-08T04:45:08;68.00;;;30.83;;
79047;SDS011;68680;50.764;6.120;2024-03-08T04:47:34;65.25;;;29.40;;
79047;SDS011;68680;50.764;6.120;2024-03-08T04:50:00;68.32;;;30.75;;
79047;SDS011;68680;50.764;6.120;2024-03-08T04:52:26;61.40;;;28.88;;
79047;SDS011;68680;50.764;6.120;2024-03-08T04:54:53;67.18;;;29.15;;
79047;SDS011;68680;50.764;6.120;2024-03-08T04:57:19;63.35;;;28.67;;
79047;SDS011;68680;50.764;6.120;2024-03-08T04:59:44;66.82;;;28.80;;
79047;SDS011;68680;50.764;6.120;2024-03-08T05:02:10;63.45;;;29.88;;
79047;SDS011;68680;50.764;6.120;2024-03-08T05:04:36;64.45;;;28.60;;
79047;SDS011;68680;50.764;6.120;2024-03-08T05:07:02;60.03;;;28.17;;
79047;SDS011;68680;50.764;6.120;2024-03-08T05:09:28;60.67;;;29.38;;
79047;SDS011;68680;50.764;6.120;2024-03-08T05:11:55;66.25;;;29.67;;
79047;SDS011;68680;50.764;6.120;2024-03-08T05:14:21;68.28;;;29.77;;
79047;SDS011;68680;50.764;6.120;2024-03-08T05:16:46;63.67;;;28.83;;
79047;SDS011;68680;50.764;6.120;2024-03-08T05:19:12;62.35;;;27.83;;
79047;SDS011;68680;50.764;6.120;2024-03-08T05:21:38;71.03;;;28.83;;
79047;SDS011;68680;50.764;6.120;2024-03-08T05:24:04;62.70;;;29.48;;
79047;SDS011;68680;50.764;6.120;2024-03-08T05:26:30;67.75;;;29.05;;
79047;SDS011;68680;50.764;6.120;2024-03-08T05:28:57;62.63;;;29.08;;
79047;SDS011;68680;50.764;6.120;2024-03-08T05:31:24;71.40;;;29.02;;
79047;SDS011;68680;50.764;6.120;2024-03-08T05:33:49;62.60;;;28.52;;
79047;SDS011;68680;50.764;6.120;2024-03-08T05:36:16;64.68;;;28.58;;
79047;SDS011;68680;50.764;6.120;2024-03-08T05:38:42;68.35;;;28.75;;
79047;SDS011;68680;50.764;6.120;2024-03-08T05:41:07;63.97;;;26.92;;
79047;SDS011;68680;50.764;6.120;2024-03-08T05:43:33;60.40;;;27.05;;
79047;SDS011;68680;50.764;6.120;2024-03-08T05:46:00;56.33;;;26.92;;
79047;SDS011;68680;50.764;6.120;2024-03-08T05:48:26;70.53;;;29.80;;
79047;SDS011;68680;50.764;6.120;2024-03-08T05:50:52;74.32;;;28.52;;
79047;SDS011;68680;50.764;6.120;2024-03-08T05:53:17;65.50;;;28.88;;
79047;SDS011;68680;50.764;6.120;2024-03-08T05:55:43;59.83;;;28.50;;
79047;SDS011;68680;50.764;6.120;2024-03-08T05:58:09;63.20;;;28.42;;
79047;SDS011;68680;50.764;6.120;2024-03-08T06:00:35;60.03;;;26.63;;
79047;SDS011;68680;50.764;6.120;2024-03-08T06:03:02;62.28;;;29.25;;
79047;SDS011;68680;50.764;6.120;2024-03-08T06:05:28;58.67;;;27.63;;
79047;SDS011;68680;50.764;6.120;2024-03-08T06:07:53;62.53;;;28.80;;
79047;SDS011;68680;50.764;6.120;2024-03-08T06:10:28;59.47;;;28.10;;
79047;SDS011;68680;50.764;6.120;2024-03-08T06:12:53;64.18;;;28.73;;
79047;SDS011;68680;50.764;6.120;2024-03-08T06:15:19;64.03;;;28.45;;
79047;SDS011;68680;50.764;6.120;2024-03-08T06:17:45;65.72;;;28.50;;
79047;SDS011;68680;50.764;6.120;2024-03-08T06:20:12;67.65;;;28.05;;
79047;SDS011;68680;50.764;6.120;2024-03-08T06:22:38;61.65;;;27.48;;
79047;SDS011;68680;50.764;6.120;2024-03-08T06:25:05;60.35;;;27.05;;
79047;SDS011;68680;50.764;6.120;2024-03-08T06:27:31;65.22;;;28.90;;
79047;SDS011;68680;50.764;6.120;2024-03-08T06:29:57;60.47;;;28.65;;
79047;SDS011;68680;50.764;6.120;2024-03-08T06:32:23;69.32;;;28.85;;
79047;SDS011;68680;50.764;6.120;2024-03-08T06:34:48;64.10;;;27.85;;
79047;SDS011;68680;50.764;6.120;2024-03-08T06:37:16;60.60;;;27.88;;
79047;SDS011;68680;50.764;6.120;2024-03-08T06:39:41;64.00;;;28.73;;
79047;SDS011;68680;50.764;6.120;2024-03-08T06:42:07;61.13;;;27.50;;
79047;SDS011;68680;50.764;6.120;2024-03-08T06:44:33;62.33;;;28.88;;
79047;SDS011;68680;50.764;6.120;2024-03-08T06:46:59;65.22;;;29.30;;
79047;SDS011;68680;50.764;6.120;2024-03-08T06:49:24;63.78;;;27.55;;
79047;SDS011;68680;50.764;6.120;2024-03-08T06:51:50;64.80;;;28.25;;
79047;SDS011;68680;50.764;6.120;2024-03-08T06:54:17;64.90;;;28.02;;
79047;SDS011;68680;50.764;6.120;2024-03-08T06:56:43;62.03;;;28.52;;
79047;SDS011;68680;50.764;6.120;2024-03-08T06:59:09;64.15;;;29.38;;
79047;SDS011;68680;50.764;6.120;2024-03-08T07:01:34;58.78;;;27.70;;
79047;SDS011;68680;50.764;6.120;2024-03-08T07:04:00;63.40;;;27.75;;
79047;SDS011;68680;50.764;6.120;2024-03-08T07:06:26;60.90;;;26.67;;
79047;SDS011;68680;50.764;6.120;2024-03-08T07:08:52;56.80;;;26.27;;
79047;SDS011;68680;50.764;6.120;2024-03-08T07:11:19;58.38;;;26.10;;
79047;SDS011;68680;50.764;6.120;2024-03-08T07:13:44;64.90;;;26.42;;
79047;SDS011;68680;50.764;6.120;2024-03-08T07:16:11;59.85;;;25.92;;
79047;SDS011;68680;50.764;6.120;2024-03-08T07:18:36;59.15;;;26.00;;
79047;SDS011;68680;50.764;6.120;2024-03-08T07:21:02;62.85;;;27.35;;
79047;SDS011;68680;50.764;6.120;2024-03-08T07:23:29;57.13;;;26.65;;
79047;SDS011;68680;50.764;6.120;2024-03-08T07:25:54;58.88;;;25.20;;
79047;SDS011;68680;50.764;6.120;2024-03-08T07:28:21;57.15;;;26.45;;
79047;SDS011;68680;50.764;6.120;2024-03-08T07:30:47;60.08;;;24.80;;
79047;SDS011;68680;50.764;6.120;2024-03-08T07:33:13;55.40;;;25.92;;
79047;SDS011;68680;50.764;6.120;2024-03-08T07:35:39;60.88;;;25.95;;
79047;SDS011;68680;50.764;6.120;2024-03-08T07:38:05;57.45;;;24.98;;
79047;SDS011;68680;50.764;6.120;2024-03-08T07:40:31;57.40;;;25.00;;
79047;SDS011;68680;50.764;6.120;2024-03-08T07:43:00;52.45;;;24.15;;
79047;SDS011;68680;50.764;6.120;2024-03-08T07:45:27;53.75;;;24.77;;
79047;SDS011;68680;50.764;6.120;2024-03-08T07:47:53;53.97;;;25.88;;
79047;SDS011;68680;50.764;6.120;2024-03-08T07:50:19;58.17;;;25.15;;
79047;SDS011;68680;50.764;6.120;2024-03-08T07:52:45;58.70;;;26.08;;
79047;SDS011;68680;50.764;6.120;2024-03-08T07:55:10;52.83;;;24.45;;
79047;SDS011;68680;50.764;6.120;2024-03-08T07:57:36;54.92;;;25.50;;
79047;SDS011;68680;50.764;6.120;2024-03-08T08:00:02;52.65;;;25.13;;
79047;SDS011;68680;50.764;6.120;2024-03-08T08:02:31;55.97;;;24.48;;
79047;SDS011;68680;50.764;6.120;2024-03-08T08:04:57;48.53;;;22.92;;
79047;SDS011;68680;50.764;6.120;2024-03-08T08:07:22;49.70;;;23.05;;
79047;SDS011;68680;50.764;6.120;2024-03-08T08:09:48;48.17;;;24.80;;
79047;SDS011;68680;50.764;6.120;2024-03-08T08:12:14;50.05;;;24.35;;
79047;SDS011;68680;50.764;6.120;2024-03-08T08:14:40;49.72;;;23.77;;
79047;SDS011;68680;50.764;6.120;2024-03-08T08:17:05;50.40;;;23.63;;
79047;SDS011;68680;50.764;6.120;2024-03-08T08:19:33;48.83;;;24.30;;
79047;SDS011;68680;50.764;6.120;2024-03-08T08:21:58;49.20;;;23.33;;
79047;SDS011;68680;50.764;6.120;2024-03-08T08:24:24;46.75;;;21.88;;
79047;SDS011;68680;50.764;6.120;2024-03-08T08:26:50;46.40;;;23.30;;
79047;SDS011;68680;50.764;6.120;2024-03-08T08:29:16;53.20;;;23.85;;
79047;SDS011;68680;50.764;6.120;2024-03-08T08:31:41;44.92;;;21.85;;
79047;SDS011;68680;50.764;6.120;2024-03-08T08:34:08;46.83;;;21.77;;
79047;SDS011;68680;50.764;6.120;2024-03-08T08:36:36;48.53;;;22.90;;
79047;SDS011;68680;50.764;6.120;2024-03-08T08:39:02;46.42;;;22.23;;
79047;SDS011;68680;50.764;6.120;2024-03-08T08:41:27;47.42;;;22.83;;
79047;SDS011;68680;50.764;6.120;2024-03-08T08:43:53;46.67;;;22.05;;
79047;SDS011;68680;50.764;6.120;2024-03-08T08:46:19;41.15;;;21.02;;
79047;SDS011;68680;50.764;6.120;2024-03-08T08:48:45;45.45;;;21.15;;
79047;SDS011;68680;50.764;6.120;2024-03-08T08:51:10;47.55;;;22.73;;
79047;SDS011;68680;50.764;6.120;2024-03-08T08:53:38;44.45;;;20.58;;
79047;SDS011;68680;50.764;6.120;2024-03-08T08:56:05;46.00;;;21.63;;
79047;SDS011;68680;50.764;6.120;2024-03-08T08:58:31;44.13;;;22.23;;
79047;SDS011;68680;50.764;6.120;2024-03-08T09:00:57;45.20;;;22.15;;
79047;SDS011;68680;50.764;6.120;2024-03-08T09:03:23;42.42;;;22.08;;
79047;SDS011;68680;50.764;6.120;2024-03-08T09:05:48;44.92;;;21.42;;
79047;SDS011;68680;50.764;6.120;2024-03-08T09:08:14;48.80;;;21.80;;
79047;SDS011;68680;50.764;6.120;2024-03-08T09:10:41;45.97;;;22.10;;
79047;SDS011;68680;50.764;6.120;2024-03-08T09:13:07;43.47;;;21.52;;
79047;SDS011;68680;50.764;6.120;2024-03-08T09:15:33;42.70;;;21.52;;
79047;SDS011;68680;50.764;6.120;2024-03-08T09:17:58;39.95;;;20.88;;
79047;SDS011;68680;50.764;6.120;2024-03-08T09:20:24;42.80;;;20.42;;
79047;SDS011;68680;50.764;6.120;2024-03-08T09:22:50;41.08;;;20.05;;
79047;SDS011;68680;50.764;6.120;2024-03-08T09:25:16;44.63;;;21.02;;
79047;SDS011;68680;50.764;6.120;2024-03-08T09:27:43;45.60;;;21.13;;
79047;SDS011;68680;50.764;6.120;2024-03-08T09:30:09;40.15;;;21.15;;
79047;SDS011;68680;50.764;6.120;2024-03-08T09:32:36;36.30;;;19.90;;
79047;SDS011;68680;50.764;6.120;2024-03-08T09:35:01;40.67;;;20.20;;
79047;SDS011;68680;50.764;6.120;2024-03-08T09:37:28;43.47;;;20.83;;
79047;SDS011;68680;50.764;6.120;2024-03-08T09:39:53;45.47;;;20.95;;
79047;SDS011;68680;50.764;6.120;2024-03-08T09:42:19;40.75;;;20.20;;
79047;SDS011;68680;50.764;6.120;2024-03-08T09:44:46;37.83;;;19.98;;
79047;SDS011;68680;50.764;6.120;2024-03-08T09:47:13;39.97;;;19.58;;
79047;SDS011;68680;50.764;6.120;2024-03-08T09:49:39;37.55;;;19.52;;
79047;SDS011;68680;50.764;6.120;2024-03-08T09:52:05;41.22;;;19.80;;
79047;SDS011;68680;50.764;6.120;2024-03-08T09:54:32;39.25;;;19.70;;
79047;SDS011;68680;50.764;6.120;2024-03-08T09:56:58;39.65;;;19.55;;
79047;SDS011;68680;50.764;6.120;2024-03-08T09:59:24;34.72;;;18.90;;
79047;SDS011;68680;50.764;6.120;2024-03-08T10:01:51;37.00;;;19.60;;
79047;SDS011;68680;50.764;6.120;2024-03-08T10:04:17;37.17;;;18.80;;
79047;SDS011;68680;50.764;6.120;2024-03-08T10:06:43;38.35;;;18.45;;
79047;SDS011;68680;50.764;6.120;2024-03-08T10:09:08;32.20;;;18.02;;
79047;SDS011;68680;50.764;6.120;2024-03-08T10:11:34;31.73;;;17.50;;
79047;SDS011;68680;50.764;6.120;2024-03-08T10:14:00;31.77;;;17.98;;
79047;SDS011;68680;50.764;6.120;2024-03-08T10:16:27;33.80;;;18.17;;
79047;SDS011;68680;50.764;6.120;2024-03-08T10:18:54;32.05;;;17.23;;
79047;SDS011;68680;50.764;6.120;2024-03-08T10:21:22;33.45;;;17.55;;
79047;SDS011;68680;50.764;6.120;2024-03-08T10:23:47;30.63;;;16.77;;
79047;SDS011;68680;50.764;6.120;2024-03-08T10:26:14;34.88;;;17.88;;
79047;SDS011;68680;50.764;6.120;2024-03-08T10:28:41;32.15;;;16.98;;
79047;SDS011;68680;50.764;6.120;2024-03-08T10:31:09;29.83;;;15.88;;
79047;SDS011;68680;50.764;6.120;2024-03-08T10:33:34;27.48;;;15.43;;
79047;SDS011;68680;50.764;6.120;2024-03-08T10:36:02;32.17;;;16.13;;
79047;SDS011;68680;50.764;6.120;2024-03-08T10:38:29;24.45;;;13.43;;
79047;SDS011;68680;50.764;6.120;2024-03-08T10:40:57;24.75;;;13.68;;
79047;SDS011;68680;50.764;6.120;2024-03-08T10:43:24;27.17;;;13.27;;
79047;SDS011;68680;50.764;6.120;2024-03-08T10:45:50;26.27;;;14.02;;
79047;SDS011;68680;50.764;6.120;2024-03-08T10:48:30;23.33;;;13.27;;
79047;SDS011;68680;50.764;6.120;2024-03-08T10:50:57;27.30;;;14.00;;
79047;SDS011;68680;50.764;6.120;2024-03-08T10:53:26;23.75;;;12.77;;
79047;SDS011;68680;50.764;6.120;2024-03-08T10:55:53;23.77;;;13.57;;
79047;SDS011;68680;50.764;6.120;2024-03-08T10:58:21;26.35;;;12.55;;
79047;SDS011;68680;50.764;6.120;2024-03-08T11:06:11;21.88;;;12.15;;
79047;SDS011;68680;50.764;6.120;2024-03-08T11:08:42;23.70;;;12.73;;
79047;SDS011;68680;50.764;6.120;2024-03-08T11:11:23;21.08;;;12.95;;
79047;SDS011;68680;50.764;6.120;2024-03-08T11:13:53;21.98;;;12.82;;
79047;SDS011;68680;50.764;6.120;2024-03-08T11:19:05;20.95;;;11.98;;
79047;SDS011;68680;50.764;6.120;2024-03-08T11:21:56;20.15;;;11.98;;
79047;SDS011;68680;50.764;6.120;2024-03-08T11:24:28;20.88;;;11.75;;
79047;SDS011;68680;50.764;6.120;2024-03-08T11:27:03;24.92;;;12.05;;
79047;SDS011;68680;50.764;6.120;2024-03-08T11:29:33;21.63;;;12.52;;
79047;SDS011;68680;50.764;6.120;2024-03-08T11:32:03;20.40;;;12.73;;
79047;SDS011;68680;50.764;6.120;2024-03-08T11:34:31;22.83;;;12.20;;
79047;SDS011;68680;50.764;6.120;2024-03-08T11:36:57;22.30;;;13.18;;
79047;SDS011;68680;50.764;6.120;2024-03-08T11:39:23;20.73;;;12.93;;
79047;SDS011;68680;50.764;6.120;2024-03-08T11:41:51;20.65;;;12.07;;
79047;SDS011;68680;50.764;6.120;2024-03-08T11:44:17;21.67;;;11.57;;
79047;SDS011;68680;50.764;6.120;2024-03-08T11:46:43;21.60;;;12.68;;
79047;SDS011;68680;50.764;6.120;2024-03-08T11:49:09;24.40;;;13.50;;
79047;SDS011;68680;50.764;6.120;2024-03-08T11:51:34;22.77;;;12.63;;
79047;SDS011;68680;50.764;6.120;2024-03-08T11:54:00;21.95;;;12.05;;
79047;SDS011;68680;50.764;6.120;2024-03-08T11:56:26;20.65;;;12.52;;
79047;SDS011;68680;50.764;6.120;2024-03-08T11:58:54;21.45;;;11.95;;
79047;SDS011;68680;50.764;6.120;2024-03-08T12:01:21;21.52;;;12.95;;
79047;SDS011;68680;50.764;6.120;2024-03-08T12:03:52;21.88;;;12.10;;
79047;SDS011;68680;50.764;6.120;2024-03-08T12:06:19;23.75;;;12.60;;
79047;SDS011;68680;50.764;6.120;2024-03-08T12:08:45;17.90;;;11.60;;
79047;SDS011;68680;50.764;6.120;2024-03-08T12:11:11;25.27;;;12.63;;
79047;SDS011;68680;50.764;6.120;2024-03-08T12:13:37;20.48;;;11.13;;
79047;SDS011;68680;50.764;6.120;2024-03-08T12:16:05;21.30;;;12.27;;
79047;SDS011;68680;50.764;6.120;2024-03-08T12:18:33;19.25;;;11.30;;
79047;SDS011;68680;50.764;6.120;2024-03-08T12:21:04;21.60;;;12.55;;
79047;SDS011;68680;50.764;6.120;2024-03-08T12:23:30;20.33;;;12.32;;
79047;SDS011;68680;50.764;6.120;2024-03-08T12:25:56;21.00;;;12.00;;
79047;SDS011;68680;50.764;6.120;2024-03-08T12:28:22;18.73;;;11.00;;
79047;SDS011;68680;50.764;6.120;2024-03-08T12:30:48;20.75;;;11.93;;
79047;SDS011;68680;50.764;6.120;2024-03-08T12:33:16;18.10;;;11.07;;
79047;SDS011;68680;50.764;6.120;2024-03-08T12:35:49;19.80;;;10.75;;
79047;SDS011;68680;50.764;6.120;2024-03-08T12:38:16;18.48;;;10.98;;
79047;SDS011;68680;50.764;6.120;2024-03-08T12:40:42;19.70;;;10.63;;
79047;SDS011;68680;50.764;6.120;2024-03-08T12:43:08;18.95;;;10.90;;
79047;SDS011;68680;50.764;6.120;2024-03-08T12:45:33;20.50;;;11.05;;
79047;SDS011;68680;50.764;6.120;2024-03-08T12:47:59;19.42;;;11.63;;
79047;SDS011;68680;50.764;6.120;2024-03-08T12:50:26;20.83;;;12.20;;
79047;SDS011;68680;50.764;6.120;2024-03-08T12:52:52;18.75;;;11.05;;
79047;SDS011;68680;50.764;6.120;2024-03-08T12:55:18;20.63;;;11.15;;
79047;SDS011;68680;50.764;6.120;2024-03-08T12:57:44;18.92;;;11.30;;
79047;SDS011;68680;50.764;6.120;2024-03-08T13:00:10;20.23;;;10.63;;
79047;SDS011;68680;50.764;6.120;2024-03-08T13:02:37;23.48;;;12.48;;
79047;SDS011;68680;50.764;6.120;2024-03-08T13:05:02;27.73;;;13.70;;
79047;SDS011;68680;50.764;6.120;2024-03-08T13:07:30;18.92;;;11.23;;
79047;SDS011;68680;50.764;6.120;2024-03-08T13:09:56;21.77;;;11.65;;
79047;SDS011;68680;50.764;6.120;2024-03-08T13:12:22;17.45;;;10.02;;
79047;SDS011;68680;50.764;6.120;2024-03-08T13:14:48;24.23;;;10.27;;
79047;SDS011;68680;50.764;6.120;2024-03-08T13:17:13;19.95;;;10.85;;
79047;SDS011;68680;50.764;6.120;2024-03-08T13:19:39;19.63;;;9.98;;
79047;SDS011;68680;50.764;6.120;2024-03-08T13:22:05;20.05;;;10.55;;
79047;SDS011;68680;50.764;6.120;2024-03-08T13:24:32;15.60;;;9.55;;
79047;SDS011;68680;50.764;6.120;2024-03-08T13:26:58;19.35;;;11.05;;
79047;SDS011;68680;50.764;6.120;2024-03-08T13:29:24;16.63;;;9.75;;
79047;SDS011;68680;50.764;6.120;2024-03-08T13:31:50;24.25;;;9.68;;
79047;SDS011;68680;50.764;6.120;2024-03-08T13:34:16;17.30;;;9.80;;
79047;SDS011;68680;50.764;6.120;2024-03-08T13:36:42;19.55;;;11.30;;
79047;SDS011;68680;50.764;6.120;2024-03-08T13:39:08;16.13;;;10.23;;
79047;SDS011;68680;50.764;6.120;2024-03-08T13:41:35;16.15;;;10.27;;
79047;SDS011;68680;50.764;6.120;2024-03-08T13:44:01;18.00;;;10.32;;
79047;SDS011;68680;50.764;6.120;2024-03-08T13:46:27;20.23;;;11.13;;
79047;SDS011;68680;50.764;6.120;2024-03-08T13:48:53;17.92;;;12.20;;
79047;SDS011;68680;50.764;6.120;2024-03-08T13:51:19;18.83;;;11.13;;
79047;SDS011;68680;50.764;6.120;2024-03-08T13:53:45;15.25;;;10.90;;
79047;SDS011;68680;50.764;6.120;2024-03-08T13:56:11;14.82;;;9.85;;
79047;SDS011;68680;50.764;6.120;2024-03-08T13:58:38;19.25;;;11.45;;
79047;SDS011;68680;50.764;6.120;2024-03-08T14:01:04;19.23;;;11.45;;
79047;SDS011;68680;50.764;6.120;2024-03-08T14:03:30;17.88;;;11.55;;
79047;SDS011;68680;50.764;6.120;2024-03-08T14:05:55;17.10;;;10.38;;
79047;SDS011;68680;50.764;6.120;2024-03-08T14:08:21;15.63;;;9.30;;
79047;SDS011;68680;50.764;6.120;2024-03-08T14:10:47;10.77;;;9.43;;
79047;SDS011;68680;50.764;6.120;2024-03-08T14:13:12;17.45;;;11.15;;
79047;SDS011;68680;50.764;6.120;2024-03-08T14:15:40;16.42;;;11.52;;
79047;SDS011;68680;50.764;6.120;2024-03-08T14:18:06;15.48;;;10.70;;
79047;SDS011;68680;50.764;6.120;2024-03-08T14:20:32;19.30;;;12.20;;
79047;SDS011;68680;50.764;6.120;2024-03-08T14:22:57;16.92;;;11.05;;
79047;SDS011;68680;50.764;6.120;2024-03-08T14:25:23;17.52;;;10.85;;